createdAt,value
2024-04-23T00:00:34.253Z,4.95
2024-04-23T00:03:00.874Z,5.22
2024-04-23T00:05:27.475Z,5.53
2024-04-23T00:07:54.385Z,8.90
2024-04-23T00:10:21.079Z,5.65
2024-04-23T00:12:47.660Z,5.00
2024-04-23T00:15:14.320Z,5.25
2024-04-23T00:17:40.929Z,4.82
2024-04-23T00:20:08.104Z,5.20
2024-04-23T00:22:34.831Z,5.07
2024-04-23T00:25:01.429Z,5.13
2024-04-23T00:27:28.024Z,4.80
2024-04-23T00:29:54.611Z,5.45
2024-04-23T00:32:21.238Z,5.65
2024-04-23T00:34:47.874Z,5.22
2024-04-23T00:37:14.594Z,5.13
2024-04-23T00:39:41.176Z,5.40
2024-04-23T00:42:07.755Z,6.30
2024-04-23T00:44:34.715Z,6.40
2024-04-23T00:47:01.678Z,5.93
2024-04-23T00:49:28.370Z,5.20
2024-04-23T00:51:55.482Z,5.45
2024-04-23T00:54:24.815Z,4.75
2024-04-23T00:56:53.991Z,5.60
2024-04-23T00:59:21.504Z,5.50
2024-04-23T01:01:50.988Z,6.03
2024-04-23T01:04:17.820Z,5.60
2024-04-23T01:06:44.520Z,5.72
2024-04-23T01:09:11.130Z,4.80
2024-04-23T01:11:37.844Z,4.95
2024-04-23T01:14:05.599Z,5.35
2024-04-23T01:16:36.501Z,5.60
2024-04-23T01:19:06.244Z,5.80
2024-04-23T01:21:55.115Z,4.80
2024-04-23T01:24:27.056Z,5.38
2024-04-23T01:26:54.105Z,5.20
2024-04-23T01:29:21.227Z,5.05
2024-04-23T01:31:48.114Z,4.40
2024-04-23T01:34:15.460Z,5.82
2024-04-23T01:36:42.567Z,5.15
2024-04-23T01:39:09.309Z,9.18
2024-04-23T01:41:36.422Z,13.70
2024-04-23T01:44:03.535Z,11.40
2024-04-23T01:46:30.938Z,14.10
2024-04-23T01:48:57.721Z,15.02
2024-04-23T01:51:24.359Z,14.60
2024-04-23T01:53:50.932Z,12.38
2024-04-23T01:56:17.570Z,11.88
2024-04-23T01:58:44.208Z,10.57
2024-04-23T02:01:12.126Z,8.88
2024-04-23T02:03:39.797Z,11.38
2024-04-23T02:06:06.890Z,10.52
2024-04-23T02:08:33.483Z,9.98
2024-04-23T02:11:00.183Z,11.95
2024-04-23T02:13:27.334Z,12.77
2024-04-23T02:15:53.968Z,16.52
2024-04-23T02:18:20.659Z,13.93
2024-04-23T02:20:48.956Z,16.42
2024-04-23T02:23:15.579Z,10.68
2024-04-23T02:25:42.240Z,7.93
2024-04-23T02:28:08.882Z,5.97
2024-04-23T02:30:35.479Z,7.82
2024-04-23T02:33:02.163Z,9.25
2024-04-23T02:35:28.771Z,7.70
2024-04-23T02:37:55.452Z,5.38
2024-04-23T02:40:22.036Z,7.15
2024-04-23T02:42:48.615Z,12.10
2024-04-23T02:45:15.682Z,9.85
2024-04-23T02:47:42.365Z,13.45
2024-04-23T02:50:09.131Z,12.23
2024-04-23T02:52:38.549Z,9.15
2024-04-23T02:55:05.860Z,6.07
2024-04-23T02:57:32.486Z,6.28
2024-04-23T02:59:59.185Z,5.75
2024-04-23T03:02:25.899Z,6.93
2024-04-23T03:04:52.516Z,6.70
2024-04-23T03:07:19.117Z,5.43
2024-04-23T03:09:45.726Z,6.10
2024-04-23T03:12:12.341Z,5.15
2024-04-23T03:14:38.911Z,5.28
2024-04-23T03:17:05.525Z,6.70
2024-04-23T03:19:32.150Z,6.18
2024-04-23T03:21:58.949Z,5.45
2024-04-23T03:24:26.479Z,6.68
2024-04-23T03:26:53.248Z,6.20
2024-04-23T03:29:20.553Z,5.55
2024-04-23T03:31:47.862Z,6.20
2024-04-23T03:34:15.206Z,5.90
2024-04-23T03:36:41.895Z,8.07
2024-04-23T03:39:08.582Z,5.70
2024-04-23T03:41:35.550Z,6.93
2024-04-23T03:44:02.256Z,5.70
2024-04-23T03:46:28.972Z,6.18
2024-04-23T03:48:55.562Z,6.38
2024-04-23T03:51:22.213Z,6.03
2024-04-23T03:53:48.812Z,5.93
2024-04-23T03:56:15.403Z,6.75
2024-04-23T03:58:42.059Z,6.35
2024-04-23T04:01:08.796Z,6.20
2024-04-23T04:03:54.163Z,8.27
2024-04-23T04:06:20.730Z,6.50
2024-04-23T04:08:47.315Z,6.93
2024-04-23T04:11:14.068Z,7.00
2024-04-23T04:13:42.095Z,6.82
2024-04-23T04:16:09.716Z,7.28
2024-04-23T04:18:38.328Z,7.05
2024-04-23T04:21:08.227Z,8.23
2024-04-23T04:23:34.844Z,7.05
2024-04-23T04:26:01.629Z,5.78
2024-04-23T04:28:28.537Z,6.40
2024-04-23T04:30:55.190Z,6.95
2024-04-23T04:33:21.869Z,7.85
2024-04-23T04:35:48.497Z,7.20
2024-04-23T04:38:15.089Z,6.78
2024-04-23T04:40:41.868Z,7.32
2024-04-23T04:43:08.673Z,6.55
2024-04-23T04:45:35.350Z,6.60
2024-04-23T04:48:02.320Z,7.20
2024-04-23T04:50:29.037Z,8.95
2024-04-23T04:52:55.692Z,8.05
2024-04-23T04:55:24.774Z,6.95
2024-04-23T04:57:52.560Z,6.82
2024-04-23T05:00:19.282Z,8.07
2024-04-23T05:02:45.933Z,7.50
2024-04-23T05:05:12.988Z,6.95
2024-04-23T05:07:39.621Z,7.40
2024-04-23T05:10:06.817Z,6.78
2024-04-23T05:12:36.762Z,7.72
2024-04-23T05:15:04.337Z,6.85
2024-04-23T05:17:31.052Z,7.32
2024-04-23T05:19:57.756Z,7.57
2024-04-23T05:22:24.595Z,7.97
2024-04-23T05:24:51.231Z,6.97
2024-04-23T05:27:17.824Z,7.25
2024-04-23T05:29:45.127Z,7.40
2024-04-23T05:32:31.301Z,7.95
2024-04-23T05:34:58.154Z,7.40
2024-04-23T05:37:24.844Z,7.70
2024-04-23T05:39:51.465Z,7.78
2024-04-23T05:42:19.050Z,7.20
2024-04-23T05:44:45.627Z,6.95
2024-04-23T05:47:12.412Z,7.32
2024-04-23T05:50:18.741Z,7.38
2024-04-23T05:53:43.396Z,7.55
2024-04-23T05:56:28.519Z,7.25
2024-04-23T05:58:55.121Z,7.68
2024-04-23T06:01:21.787Z,7.78
2024-04-23T06:03:48.423Z,7.90
2024-04-23T06:06:15.015Z,8.65
2024-04-23T06:08:41.612Z,7.97
2024-04-23T06:11:08.377Z,9.05
2024-04-23T06:13:35.080Z,7.85
2024-04-23T06:16:01.675Z,8.60
2024-04-23T06:18:29.336Z,7.93
2024-04-23T06:20:56.361Z,7.65
2024-04-23T06:23:23.141Z,7.70
2024-04-23T06:25:49.742Z,7.50
2024-04-23T06:28:16.349Z,7.63
2024-04-23T06:30:43.020Z,6.95
2024-04-23T06:33:09.662Z,8.90
2024-04-23T06:35:36.342Z,7.43
2024-04-23T06:38:02.950Z,6.20
2024-04-23T06:40:29.700Z,7.72
2024-04-23T06:42:56.424Z,7.78
2024-04-23T06:45:23.101Z,7.30
2024-04-23T06:47:49.757Z,6.72
2024-04-23T06:50:16.398Z,6.57
2024-04-23T06:52:43.001Z,6.63
2024-04-23T06:55:09.638Z,7.47
2024-04-23T06:57:36.288Z,6.43
2024-04-23T07:00:02.947Z,8.75
2024-04-23T07:02:29.689Z,7.28
2024-04-23T07:04:56.416Z,7.38
2024-04-23T07:07:23.007Z,6.80
2024-04-23T07:09:49.633Z,10.18
2024-04-23T07:12:16.264Z,7.38
2024-04-23T07:14:43.079Z,7.97
2024-04-23T07:17:09.778Z,7.95
2024-04-23T07:19:36.687Z,6.50
2024-04-23T07:22:03.449Z,7.00
2024-04-23T07:24:30.034Z,6.65
2024-04-23T07:26:56.618Z,7.35
2024-04-23T07:29:23.236Z,7.63
2024-04-23T07:31:49.894Z,7.70
2024-04-23T07:34:16.512Z,7.57
2024-04-23T07:36:46.537Z,8.05
2024-04-23T07:39:14.583Z,6.63
2024-04-23T07:41:41.993Z,7.43
2024-04-23T07:44:08.997Z,7.20
2024-04-23T07:46:35.774Z,6.88
2024-04-23T07:49:03.378Z,6.72
2024-04-23T07:51:32.314Z,6.60
2024-04-23T07:53:59.032Z,6.43
2024-04-23T07:56:25.952Z,6.90
2024-04-23T07:58:52.573Z,7.47
2024-04-23T08:01:19.237Z,9.07
2024-04-23T08:03:45.872Z,6.60
2024-04-23T08:06:12.499Z,9.43
2024-04-23T08:08:39.096Z,6.97
2024-04-23T08:11:05.790Z,8.50
2024-04-23T08:13:32.704Z,6.95
2024-04-23T08:15:59.889Z,9.00
2024-04-23T08:18:26.581Z,7.28
2024-04-23T08:20:53.271Z,7.13
2024-04-23T08:23:20.988Z,7.72
2024-04-23T08:25:50.345Z,7.00
2024-04-23T08:28:17.029Z,6.22
2024-04-23T08:30:44.662Z,8.10
2024-04-23T08:33:11.895Z,11.68
2024-04-23T08:35:38.701Z,12.10
2024-04-23T08:38:05.498Z,7.80
2024-04-23T08:40:32.215Z,6.75
2024-04-23T08:43:07.724Z,7.15
2024-04-23T08:45:37.851Z,9.93
2024-04-23T08:48:05.378Z,7.78
2024-04-23T08:50:32.510Z,7.72
2024-04-23T08:52:59.362Z,9.50
2024-04-23T08:55:26.365Z,8.45
2024-04-23T08:57:53.342Z,6.53
2024-04-23T09:00:20.635Z,6.38
2024-04-23T09:02:49.740Z,8.27
2024-04-23T09:05:18.448Z,5.95
2024-04-23T09:07:47.757Z,8.02
2024-04-23T09:10:14.464Z,8.68
2024-04-23T09:12:47.288Z,6.63
2024-04-23T09:15:14.321Z,7.57
2024-04-23T09:17:53.107Z,6.95
2024-04-23T09:20:21.803Z,6.13
2024-04-23T09:23:08.759Z,9.45
2024-04-23T09:25:36.409Z,6.63
2024-04-23T09:28:04.314Z,8.18
2024-04-23T09:30:31.341Z,7.00
2024-04-23T09:33:05.265Z,10.98
2024-04-23T09:35:31.981Z,5.40
2024-04-23T09:37:58.607Z,8.63
2024-04-23T09:40:25.784Z,7.25
2024-04-23T09:42:55.970Z,5.70
2024-04-23T09:45:28.649Z,6.97
2024-04-23T09:47:55.372Z,5.72
2024-04-23T09:50:21.996Z,4.90
2024-04-23T09:52:49.649Z,4.72
2024-04-23T09:55:19.476Z,5.32
2024-04-23T09:57:49.771Z,5.93
2024-04-23T10:00:17.174Z,5.68
2024-04-23T10:02:45.768Z,4.65
2024-04-23T10:05:17.966Z,6.45
2024-04-23T10:07:56.206Z,6.10
2024-04-23T10:10:35.161Z,9.05
2024-04-23T10:13:03.470Z,5.20
2024-04-23T10:15:36.488Z,4.72
2024-04-23T10:18:21.492Z,6.13
2024-04-23T10:20:50.290Z,4.68
2024-04-23T10:23:19.488Z,6.78
2024-04-23T10:25:47.794Z,5.13
2024-04-23T10:28:15.536Z,6.43
2024-04-23T10:30:42.988Z,5.90
2024-04-23T10:33:11.220Z,4.57
2024-04-23T10:35:39.916Z,5.93
2024-04-23T10:38:07.896Z,5.10
2024-04-23T10:40:43.146Z,4.95
2024-04-23T10:43:16.120Z,4.63
2024-04-23T10:45:43.139Z,4.30
2024-04-23T10:48:11.381Z,4.63
2024-04-23T10:50:39.224Z,5.28
2024-04-23T10:53:06.287Z,4.85
2024-04-23T10:55:33.111Z,6.15
2024-04-23T10:57:59.936Z,7.50
2024-04-23T11:00:32.574Z,4.75
2024-04-23T11:02:59.352Z,4.82
2024-04-23T11:05:33.190Z,5.40
2024-04-23T11:08:09.148Z,5.28
2024-04-23T11:10:50.225Z,5.25
2024-04-23T11:13:30.951Z,4.60
2024-04-23T11:16:05.273Z,6.03
2024-04-23T11:18:46.675Z,3.90
2024-04-23T11:21:26.723Z,5.38
2024-04-23T11:23:53.985Z,5.00
2024-04-23T11:26:24.254Z,4.82
2024-04-23T11:28:51.674Z,6.45
2024-04-23T11:31:20.218Z,4.53
2024-04-23T11:33:51.088Z,5.70
2024-04-23T11:36:27.995Z,6.00
2024-04-23T11:39:01.665Z,4.82
2024-04-23T11:41:28.494Z,5.25
2024-04-23T11:43:55.112Z,5.45
2024-04-23T11:46:21.794Z,5.28
2024-04-23T11:48:51.146Z,6.50
2024-04-23T11:51:17.921Z,4.80
2024-04-23T11:53:44.579Z,4.93
2024-04-23T11:56:11.271Z,5.43
2024-04-23T11:58:43.971Z,4.43
2024-04-23T12:01:10.730Z,5.90
2024-04-23T12:03:38.926Z,5.00
2024-04-23T12:06:07.571Z,5.13
2024-04-23T12:08:35.900Z,5.28
2024-04-23T12:11:05.093Z,4.88
2024-04-23T12:13:31.858Z,4.55
2024-04-23T12:16:02.046Z,4.47
2024-04-23T12:18:28.820Z,5.05
2024-04-23T12:20:55.681Z,4.97
2024-04-23T12:23:22.323Z,5.25
2024-04-23T12:25:48.982Z,6.30
2024-04-23T12:28:15.631Z,4.45
2024-04-23T12:30:42.428Z,7.35
2024-04-23T12:33:12.668Z,5.07
2024-04-23T12:35:40.400Z,6.03
2024-04-23T12:38:11.196Z,6.35
2024-04-23T12:40:40.444Z,4.82
2024-04-23T12:43:13.921Z,5.00
2024-04-23T12:45:40.791Z,6.10
2024-04-23T12:48:07.946Z,5.10
2024-04-23T12:50:34.804Z,4.90
2024-04-23T12:53:01.589Z,6.82
2024-04-23T12:55:30.127Z,5.65
2024-04-23T12:57:57.080Z,5.43
2024-04-23T13:00:23.720Z,4.93
2024-04-23T13:02:50.403Z,4.45
2024-04-23T13:05:17.209Z,5.57
2024-04-23T13:07:43.907Z,5.70
2024-04-23T13:10:11.066Z,4.75
2024-04-23T13:12:37.674Z,4.65
2024-04-23T13:15:04.827Z,4.30
2024-04-23T13:17:31.586Z,4.00
2024-04-23T13:20:01.090Z,4.97
2024-04-23T13:22:28.525Z,5.05
2024-04-23T13:24:55.172Z,4.35
2024-04-23T13:27:21.771Z,6.07
2024-04-23T13:29:48.386Z,6.80
2024-04-23T13:32:15.113Z,5.03
2024-04-23T13:34:41.977Z,9.07
2024-04-23T13:37:08.616Z,4.35
2024-04-23T13:39:35.202Z,5.15
2024-04-23T13:42:02.315Z,4.28
2024-04-23T13:44:30.641Z,8.60
2024-04-23T13:46:57.692Z,5.20
2024-04-23T13:49:24.488Z,4.47
2024-04-23T13:51:51.138Z,4.50
2024-04-23T13:54:18.663Z,4.43
2024-04-23T13:56:45.261Z,5.20
2024-04-23T13:59:14.200Z,5.03
2024-04-23T14:01:41.557Z,4.45
2024-04-23T14:04:08.247Z,5.13
2024-04-23T14:06:35.064Z,7.45
2024-04-23T14:09:01.670Z,5.10
2024-04-23T14:11:28.908Z,3.92
2024-04-23T14:13:55.838Z,4.38
2024-04-23T14:16:22.600Z,4.30
2024-04-23T14:18:49.260Z,3.75
2024-04-23T14:21:15.883Z,5.20
2024-04-23T14:23:46.498Z,3.75
2024-04-23T14:26:23.048Z,3.88
2024-04-23T14:28:51.190Z,3.58
2024-04-23T14:31:17.935Z,3.67
2024-04-23T14:33:45.428Z,3.55
2024-04-23T14:36:13.230Z,3.80
2024-04-23T14:38:42.855Z,3.95
2024-04-23T14:41:09.621Z,4.20
2024-04-23T14:43:36.540Z,4.13
2024-04-23T14:46:11.613Z,3.72
2024-04-23T14:48:38.255Z,4.32
2024-04-23T14:51:05.234Z,3.72
2024-04-23T14:53:32.018Z,4.72
2024-04-23T14:56:02.814Z,3.03
2024-04-23T14:58:29.940Z,3.53
2024-04-23T15:00:56.750Z,5.63
2024-04-23T15:03:23.832Z,3.33
2024-04-23T15:05:50.839Z,3.70
2024-04-23T15:08:17.735Z,3.63
2024-04-23T15:10:48.037Z,3.15
2024-04-23T15:13:15.718Z,4.30
2024-04-23T15:15:42.328Z,4.15
2024-04-23T15:18:09.051Z,4.90
2024-04-23T15:20:40.428Z,3.10
2024-04-23T15:23:07.504Z,3.65
2024-04-23T15:25:34.184Z,4.15
2024-04-23T15:28:00.876Z,4.50
2024-04-23T15:30:28.430Z,4.35
2024-04-23T15:32:56.398Z,4.93
2024-04-23T15:35:23.851Z,4.43
2024-04-23T15:37:50.559Z,3.40
2024-04-23T15:40:17.278Z,3.65
2024-04-23T15:42:44.150Z,3.20
2024-04-23T15:45:11.063Z,3.42
2024-04-23T15:47:37.826Z,2.88
2024-04-23T15:50:05.001Z,3.45
2024-04-23T15:52:31.748Z,2.95
2024-04-23T15:54:58.394Z,3.08
2024-04-23T15:57:25.046Z,3.38
2024-04-23T15:59:51.653Z,3.75
2024-04-23T16:02:18.317Z,3.63
2024-04-23T16:04:44.990Z,2.80
2024-04-23T16:07:11.650Z,3.05
2024-04-23T16:09:39.328Z,3.20
2024-04-23T16:12:08.488Z,3.30
2024-04-23T16:14:36.863Z,3.38
2024-04-23T16:17:03.663Z,3.28
2024-04-23T16:19:30.299Z,3.05
2024-04-23T16:21:56.909Z,2.97
2024-04-23T16:24:23.610Z,6.85
2024-04-23T16:26:50.236Z,3.88
2024-04-23T16:29:16.928Z,4.20
2024-04-23T16:31:43.764Z,3.47
2024-04-23T16:34:10.486Z,5.97
2024-04-23T16:36:37.148Z,5.85
2024-04-23T16:39:04.831Z,6.43
2024-04-23T16:41:31.490Z,3.72
2024-04-23T16:43:58.391Z,3.33
2024-04-23T16:46:26.070Z,4.28
2024-04-23T16:48:52.848Z,3.58
2024-04-23T16:51:19.616Z,3.08
2024-04-23T16:53:48.602Z,6.63
2024-04-23T16:56:17.560Z,7.93
2024-04-23T16:58:44.429Z,5.95
2024-04-23T17:01:11.243Z,5.18
2024-04-23T17:03:39.485Z,5.53
2024-04-23T17:06:06.659Z,6.60
2024-04-23T17:08:33.335Z,5.97
2024-04-23T17:11:01.251Z,7.57
2024-04-23T17:13:28.051Z,9.77
2024-04-23T17:15:54.832Z,4.07
2024-04-23T17:18:21.538Z,5.47
2024-04-23T17:20:48.165Z,4.72
2024-04-23T17:23:18.239Z,3.55
2024-04-23T17:25:45.163Z,5.55
2024-04-23T17:28:11.813Z,4.43
2024-04-23T17:30:38.431Z,6.90
2024-04-23T17:33:06.874Z,5.05
2024-04-23T17:35:33.637Z,4.28
2024-04-23T17:38:00.342Z,4.00
2024-04-23T17:40:27.033Z,3.65
2024-04-23T17:42:53.760Z,6.00
2024-04-23T17:45:20.363Z,4.38
2024-04-23T17:47:47.146Z,4.25
2024-04-23T17:50:14.116Z,4.60
2024-04-23T17:52:40.821Z,3.42
2024-04-23T17:55:08.468Z,5.70
2024-04-23T17:57:35.294Z,5.22
2024-04-23T18:00:03.486Z,4.10
2024-04-23T18:02:39.485Z,3.80
2024-04-23T18:05:06.381Z,3.50
2024-04-23T18:07:33.024Z,3.78
2024-04-23T18:09:59.717Z,2.85
2024-04-23T18:12:26.325Z,2.80
2024-04-23T18:14:54.552Z,3.65
2024-04-23T18:17:21.374Z,4.75
2024-04-23T18:19:50.426Z,4.47
2024-04-23T18:22:17.142Z,4.18
2024-04-23T18:24:43.759Z,4.40
2024-04-23T18:27:10.468Z,4.85
2024-04-23T18:29:37.067Z,7.65
2024-04-23T18:32:04.001Z,3.35
2024-04-23T18:34:30.856Z,3.35
2024-04-23T18:36:57.522Z,3.40
2024-04-23T18:39:24.160Z,2.55
2024-04-23T18:41:50.768Z,2.78
2024-04-23T18:44:17.576Z,2.97
2024-04-23T18:46:44.285Z,2.80
2024-04-23T18:49:12.568Z,3.13
2024-04-23T18:51:39.257Z,3.13
2024-04-23T18:54:06.079Z,3.65
2024-04-23T18:56:32.704Z,2.63
2024-04-23T18:58:59.354Z,2.83
2024-04-23T19:01:26.863Z,3.13
2024-04-23T19:03:53.986Z,2.92
2024-04-23T19:06:21.680Z,2.85
2024-04-23T19:08:49.855Z,2.63
2024-04-23T19:11:17.584Z,2.70
2024-04-23T19:13:44.489Z,3.05
2024-04-23T19:16:13.235Z,2.92
2024-04-23T19:18:41.094Z,3.30
2024-04-23T19:21:09.284Z,2.63
2024-04-23T19:23:36.611Z,2.70
2024-04-23T19:26:04.249Z,2.80
2024-04-23T19:28:34.320Z,2.80
2024-04-23T19:31:07.742Z,2.75
2024-04-23T19:33:35.042Z,3.13
2024-04-23T19:36:01.935Z,2.67
2024-04-23T19:38:31.884Z,3.03
2024-04-23T19:41:09.581Z,2.42
2024-04-23T19:43:50.191Z,3.55
2024-04-23T19:46:19.840Z,3.80
2024-04-23T19:48:48.032Z,4.32
2024-04-23T19:51:16.611Z,3.80
2024-04-23T19:53:49.303Z,4.18
2024-04-23T19:56:55.136Z,4.43
2024-04-23T19:59:22.211Z,5.25
2024-04-23T20:01:48.906Z,3.72
2024-04-23T20:04:17.157Z,4.32
2024-04-23T20:06:43.908Z,2.60
2024-04-23T20:09:14.724Z,2.85
2024-04-23T20:11:41.801Z,3.80
2024-04-23T20:14:08.588Z,3.30
2024-04-23T20:16:35.473Z,3.63
2024-04-23T20:19:02.102Z,2.90
2024-04-23T20:21:28.733Z,3.33
2024-04-23T20:23:55.952Z,4.30
2024-04-23T20:26:23.895Z,2.80
2024-04-23T20:28:51.479Z,3.22
2024-04-23T20:31:18.293Z,3.42
2024-04-23T20:33:44.932Z,3.45
2024-04-23T20:36:12.869Z,4.05
2024-04-23T20:38:39.486Z,3.97
2024-04-23T20:41:07.646Z,3.22
2024-04-23T20:43:37.340Z,4.55
2024-04-23T20:46:05.645Z,3.70
2024-04-23T20:48:33.459Z,3.40
2024-04-23T20:51:00.258Z,3.15
2024-04-23T20:53:26.996Z,2.88
2024-04-23T20:55:53.675Z,3.78
2024-04-23T20:58:22.028Z,3.55
2024-04-23T21:00:49.128Z,3.72
2024-04-23T21:03:15.926Z,3.22
2024-04-23T21:05:42.639Z,3.50
2024-04-23T21:08:11.921Z,3.22
2024-04-23T21:10:39.360Z,3.55
2024-04-23T21:13:06.144Z,3.95
2024-04-23T21:15:33.202Z,3.60
2024-04-23T21:18:01.220Z,3.60
2024-04-23T21:20:28.256Z,3.80
2024-04-23T21:22:54.995Z,3.42
2024-04-23T21:25:21.781Z,3.97
2024-04-23T21:27:48.460Z,3.28
2024-04-23T21:30:15.049Z,3.92
2024-04-23T21:32:41.747Z,3.38
2024-04-23T21:35:08.437Z,3.20
2024-04-23T21:37:35.652Z,3.92
2024-04-23T21:40:02.301Z,3.65
2024-04-23T21:42:35.674Z,3.30
2024-04-23T21:45:08.128Z,3.58
2024-04-23T21:47:34.970Z,3.35
2024-04-23T21:50:02.303Z,4.53
2024-04-23T21:52:38.968Z,3.75
2024-04-23T21:55:08.916Z,3.22
2024-04-23T21:57:35.709Z,3.90
2024-04-23T22:00:02.599Z,3.78
2024-04-23T22:02:35.232Z,3.42
2024-04-23T22:05:03.377Z,4.18
2024-04-23T22:07:30.054Z,3.70
2024-04-23T22:09:56.666Z,4.93
2024-04-23T22:12:23.268Z,3.85
2024-04-23T22:14:49.914Z,4.47
2024-04-23T22:17:16.650Z,4.05
2024-04-23T22:19:43.326Z,3.92
2024-04-23T22:22:09.991Z,3.80
2024-04-23T22:24:41.281Z,3.67
2024-04-23T22:27:08.766Z,3.28
2024-04-23T22:29:35.348Z,4.78
2024-04-23T22:32:01.994Z,3.30
2024-04-23T22:34:28.585Z,4.30
2024-04-23T22:36:55.206Z,3.50
2024-04-23T22:39:21.797Z,3.53
2024-04-23T22:41:48.397Z,3.50
2024-04-23T22:44:15.096Z,3.10
2024-04-23T22:46:41.814Z,3.25
2024-04-23T22:49:08.420Z,3.42
2024-04-23T22:51:35.200Z,4.78
2024-04-23T22:54:02.355Z,3.60
2024-04-23T22:56:28.950Z,3.60
2024-04-23T22:58:55.549Z,4.13
2024-04-23T23:01:22.166Z,3.72
2024-04-23T23:03:48.776Z,3.88
2024-04-23T23:06:15.412Z,3.90
2024-04-23T23:08:42.005Z,4.00
2024-04-23T23:11:08.659Z,3.40
2024-04-23T23:13:35.293Z,3.95
2024-04-23T23:16:01.935Z,3.00
2024-04-23T23:18:28.562Z,3.30
2024-04-23T23:20:55.244Z,3.33
2024-04-23T23:23:21.887Z,3.20
2024-04-23T23:25:48.509Z,3.40
2024-04-23T23:28:15.876Z,3.50
2024-04-23T23:30:42.456Z,4.88
2024-04-23T23:33:09.146Z,3.58
2024-04-23T23:35:35.781Z,4.53
2024-04-23T23:38:02.426Z,4.40
2024-04-23T23:40:29.523Z,3.67
2024-04-23T23:42:56.237Z,4.20
2024-04-23T23:45:25.552Z,3.80
2024-04-23T23:47:53.691Z,4.22
2024-04-23T23:50:20.417Z,4.40
2024-04-23T23:52:47.087Z,4.93
2024-04-23T23:55:13.851Z,4.07
2024-04-23T23:57:42.019Z,3.50
